sensor_id;sensor_type;location;lat;lon;timestamp;P1;durP1;ratioP1;P2;durP2;ratioP2
34453;SDS011;60061;52.080;5.312;2022-07-29T00:00:44;2.31;;;1.4;;
34453;SDS011;60061;52.080;5.312;2022-07-29T00:02:32;4.0;;;1.6;;
34453;SDS011;60061;52.080;5.312;2022-07-29T00:04:19;2.7;;;1.4;;
34453;SDS011;60061;52.080;5.312;2022-07-29T00:06:06;4.41;;;1.7;;
34453;SDS011;60061;52.080;5.312;2022-07-29T00:09:41;2.1;;;1.2;;
34453;SDS011;60061;52.080;5.312;2022-07-29T00:11:28;2.9;;;1.5;;
34453;SDS011;60061;52.080;5.312;2022-07-29T00:13:15;3.5;;;1.5;;
34453;SDS011;60061;52.080;5.312;2022-07-29T00:15:01;5.8;;;1.6;;
34453;SDS011;60061;52.080;5.312;2022-07-29T00:16:48;3.8;;;1.4;;
34453;SDS011;60061;52.080;5.312;2022-07-29T00:18:34;3.2;;;1.5;;
34453;SDS011;60061;52.080;5.312;2022-07-29T00:22:06;1.9;;;1.5;;
34453;SDS011;60061;52.080;5.312;2022-07-29T00:23:53;2.8;;;1.6;;
34453;SDS011;60061;52.080;5.312;2022-07-29T00:25:40;4.41;;;1.7;;
34453;SDS011;60061;52.080;5.312;2022-07-29T00:27:26;3.6;;;1.6;;
34453;SDS011;60061;52.080;5.312;2022-07-29T00:29:12;2.0;;;1.2;;
34453;SDS011;60061;52.080;5.312;2022-07-29T00:32:44;2.31;;;1.5;;
34453;SDS011;60061;52.080;5.312;2022-07-29T00:37:33;3.0;;;1.5;;
34453;SDS011;60061;52.080;5.312;2022-07-29T00:41:05;2.6;;;1.4;;
34453;SDS011;60061;52.080;5.312;2022-07-29T00:42:51;2.8;;;1.6;;
34453;SDS011;60061;52.080;5.312;2022-07-29T00:44:39;4.61;;;1.7;;
34453;SDS011;60061;52.080;5.312;2022-07-29T00:46:25;2.6;;;1.7;;
34453;SDS011;60061;52.080;5.312;2022-07-29T00:48:12;5.2;;;1.7;;
34453;SDS011;60061;52.080;5.312;2022-07-29T00:49:59;4.1;;;1.7;;
34453;SDS011;60061;52.080;5.312;2022-07-29T00:53:35;3.3;;;1.5;;
34453;SDS011;60061;52.080;5.312;2022-07-29T00:55:22;2.31;;;1.5;;
34453;SDS011;60061;52.080;5.312;2022-07-29T00:57:09;2.6;;;1.7;;
34453;SDS011;60061;52.080;5.312;2022-07-29T00:58:57;2.6;;;1.7;;
34453;SDS011;60061;52.080;5.312;2022-07-29T01:00:44;3.7;;;1.7;;
34453;SDS011;60061;52.080;5.312;2022-07-29T01:02:31;2.9;;;1.6;;
34453;SDS011;60061;52.080;5.312;2022-07-29T01:06:05;2.0;;;1.5;;
34453;SDS011;60061;52.080;5.312;2022-07-29T01:07:53;3.8;;;1.6;;
34453;SDS011;60061;52.080;5.312;2022-07-29T01:09:44;1.9;;;1.5;;
34453;SDS011;60061;52.080;5.312;2022-07-29T01:11:32;2.8;;;1.6;;
34453;SDS011;60061;52.080;5.312;2022-07-29T01:13:20;3.3;;;1.8;;
34453;SDS011;60061;52.080;5.312;2022-07-29T01:15:07;1.9;;;1.6;;
34453;SDS011;60061;52.080;5.312;2022-07-29T01:19:00;3.6;;;1.5;;
34453;SDS011;60061;52.080;5.312;2022-07-29T01:21:07;3.7;;;1.6;;
34453;SDS011;60061;52.080;5.312;2022-07-29T01:24:15;3.4;;;1.7;;
34453;SDS011;60061;52.080;5.312;2022-07-29T01:26:52;3.2;;;1.6;;
34453;SDS011;60061;52.080;5.312;2022-07-29T01:28:47;2.5;;;1.5;;
34453;SDS011;60061;52.080;5.312;2022-07-29T01:30:45;3.4;;;1.7;;
34453;SDS011;60061;52.080;5.312;2022-07-29T01:32:37;2.21;;;1.4;;
34453;SDS011;60061;52.080;5.312;2022-07-29T01:34:27;3.2;;;1.6;;
34453;SDS011;60061;52.080;5.312;2022-07-29T01:36:22;3.9;;;1.8;;
34453;SDS011;60061;52.080;5.312;2022-07-29T01:38:13;3.5;;;1.6;;
34453;SDS011;60061;52.080;5.312;2022-07-29T01:40:08;3.8;;;1.7;;
34453;SDS011;60061;52.080;5.312;2022-07-29T01:44:05;3.7;;;1.7;;
34453;SDS011;60061;52.080;5.312;2022-07-29T01:46:01;3.0;;;1.7;;
34453;SDS011;60061;52.080;5.312;2022-07-29T01:47:54;2.8;;;1.5;;
34453;SDS011;60061;52.080;5.312;2022-07-29T01:49:50;2.7;;;1.6;;
34453;SDS011;60061;52.080;5.312;2022-07-29T01:51:42;4.1;;;1.6;;
34453;SDS011;60061;52.080;5.312;2022-07-29T01:53:36;4.7;;;1.8;;
34453;SDS011;60061;52.080;5.312;2022-07-29T01:55:38;2.6;;;1.9;;
34453;SDS011;60061;52.080;5.312;2022-07-29T01:57:30;2.6;;;1.6;;
34453;SDS011;60061;52.080;5.312;2022-07-29T01:59:19;3.3;;;1.7;;
34453;SDS011;60061;52.080;5.312;2022-07-29T02:01:07;4.91;;;1.9;;
34453;SDS011;60061;52.080;5.312;2022-07-29T02:04:48;3.2;;;1.7;;
34453;SDS011;60061;52.080;5.312;2022-07-29T02:06:37;2.6;;;1.9;;
34453;SDS011;60061;52.080;5.312;2022-07-29T02:08:26;2.9;;;1.7;;
34453;SDS011;60061;52.080;5.312;2022-07-29T02:10:16;4.5;;;1.9;;
34453;SDS011;60061;52.080;5.312;2022-07-29T02:12:08;3.6;;;1.7;;
34453;SDS011;60061;52.080;5.312;2022-07-29T02:13:58;4.7;;;1.8;;
34453;SDS011;60061;52.080;5.312;2022-07-29T02:15:47;5.7;;;1.8;;
34453;SDS011;60061;52.080;5.312;2022-07-29T02:19:30;3.4;;;1.7;;
34453;SDS011;60061;52.080;5.312;2022-07-29T02:21:20;3.1;;;1.9;;
34453;SDS011;60061;52.080;5.312;2022-07-29T02:23:10;3.1;;;1.6;;
34453;SDS011;60061;52.080;5.312;2022-07-29T02:24:59;3.9;;;1.9;;
34453;SDS011;60061;52.080;5.312;2022-07-29T02:26:47;2.4;;;2.0;;
34453;SDS011;60061;52.080;5.312;2022-07-29T02:28:36;5.6;;;2.0;;
34453;SDS011;60061;52.080;5.312;2022-07-29T02:30:23;5.0;;;2.0;;
34453;SDS011;60061;52.080;5.312;2022-07-29T02:34:02;3.9;;;1.9;;
34453;SDS011;60061;52.080;5.312;2022-07-29T02:35:52;3.3;;;1.8;;
34453;SDS011;60061;52.080;5.312;2022-07-29T02:37:40;2.4;;;1.8;;
34453;SDS011;60061;52.080;5.312;2022-07-29T02:39:29;2.6;;;1.9;;
34453;SDS011;60061;52.080;5.312;2022-07-29T02:41:18;3.3;;;2.0;;
34453;SDS011;60061;52.080;5.312;2022-07-29T02:43:08;2.9;;;1.9;;
34453;SDS011;60061;52.080;5.312;2022-07-29T02:44:57;4.61;;;2.0;;
34453;SDS011;60061;52.080;5.312;2022-07-29T02:48:37;3.4;;;2.21;;
34453;SDS011;60061;52.080;5.312;2022-07-29T02:50:29;4.0;;;2.21;;
34453;SDS011;60061;52.080;5.312;2022-07-29T02:52:21;4.5;;;2.1;;
34453;SDS011;60061;52.080;5.312;2022-07-29T02:54:16;3.5;;;1.9;;
34453;SDS011;60061;52.080;5.312;2022-07-29T02:56:10;3.7;;;2.1;;
34453;SDS011;60061;52.080;5.312;2022-07-29T02:58:02;4.7;;;2.21;;
34453;SDS011;60061;52.080;5.312;2022-07-29T02:59:52;3.5;;;1.9;;
34453;SDS011;60061;52.080;5.312;2022-07-29T03:01:43;3.8;;;2.21;;
34453;SDS011;60061;52.080;5.312;2022-07-29T03:05:21;4.3;;;2.0;;
34453;SDS011;60061;52.080;5.312;2022-07-29T03:07:08;3.4;;;2.1;;
34453;SDS011;60061;52.080;5.312;2022-07-29T03:08:58;2.9;;;2.0;;
34453;SDS011;60061;52.080;5.312;2022-07-29T03:10:47;4.61;;;2.21;;
34453;SDS011;60061;52.080;5.312;2022-07-29T03:12:34;4.3;;;1.9;;
34453;SDS011;60061;52.080;5.312;2022-07-29T03:14:22;2.8;;;2.0;;
34453;SDS011;60061;52.080;5.312;2022-07-29T03:17:59;3.4;;;2.0;;
34453;SDS011;60061;52.080;5.312;2022-07-29T03:19:45;2.6;;;2.0;;
34453;SDS011;60061;52.080;5.312;2022-07-29T03:21:33;3.1;;;2.31;;
34453;SDS011;60061;52.080;5.312;2022-07-29T03:23:22;3.6;;;2.1;;
34453;SDS011;60061;52.080;5.312;2022-07-29T03:25:10;3.1;;;2.1;;
34453;SDS011;60061;52.080;5.312;2022-07-29T03:26:59;4.0;;;2.21;;
34453;SDS011;60061;52.080;5.312;2022-07-29T03:30:33;3.5;;;1.9;;
34453;SDS011;60061;52.080;5.312;2022-07-29T03:32:20;3.8;;;2.21;;
34453;SDS011;60061;52.080;5.312;2022-07-29T03:34:06;4.2;;;1.8;;
34453;SDS011;60061;52.080;5.312;2022-07-29T03:35:52;4.7;;;2.31;;
34453;SDS011;60061;52.080;5.312;2022-07-29T03:37:38;5.4;;;2.31;;
34453;SDS011;60061;52.080;5.312;2022-07-29T03:39:25;4.2;;;2.1;;
34453;SDS011;60061;52.080;5.312;2022-07-29T03:43:05;3.5;;;2.0;;
34453;SDS011;60061;52.080;5.312;2022-07-29T03:44:56;5.0;;;2.1;;
34453;SDS011;60061;52.080;5.312;2022-07-29T03:46:45;6.6;;;2.4;;
34453;SDS011;60061;52.080;5.312;2022-07-29T03:48:36;4.41;;;2.1;;
34453;SDS011;60061;52.080;5.312;2022-07-29T03:50:25;2.6;;;1.8;;
34453;SDS011;60061;52.080;5.312;2022-07-29T03:52:12;4.5;;;2.0;;
34453;SDS011;60061;52.080;5.312;2022-07-29T03:54:00;5.11;;;2.31;;
34453;SDS011;60061;52.080;5.312;2022-07-29T03:57:40;3.2;;;2.0;;
34453;SDS011;60061;52.080;5.312;2022-07-29T03:59:28;5.8;;;2.1;;
34453;SDS011;60061;52.080;5.312;2022-07-29T04:01:18;5.9;;;2.0;;
34453;SDS011;60061;52.080;5.312;2022-07-29T04:03:06;3.5;;;1.9;;
34453;SDS011;60061;52.080;5.312;2022-07-29T04:04:55;3.1;;;2.1;;
34453;SDS011;60061;52.080;5.312;2022-07-29T04:06:42;2.31;;;1.9;;
34453;SDS011;60061;52.080;5.312;2022-07-29T04:10:19;3.3;;;2.1;;
34453;SDS011;60061;52.080;5.312;2022-07-29T04:12:05;4.0;;;2.1;;
34453;SDS011;60061;52.080;5.312;2022-07-29T04:13:52;3.6;;;2.21;;
34453;SDS011;60061;52.080;5.312;2022-07-29T04:15:38;3.4;;;1.8;;
34453;SDS011;60061;52.080;5.312;2022-07-29T04:17:25;3.6;;;1.9;;
34453;SDS011;60061;52.080;5.312;2022-07-29T04:19:11;3.1;;;2.1;;
34453;SDS011;60061;52.080;5.312;2022-07-29T04:22:47;3.4;;;1.9;;
34453;SDS011;60061;52.080;5.312;2022-07-29T04:24:34;5.0;;;2.31;;
34453;SDS011;60061;52.080;5.312;2022-07-29T04:26:20;3.6;;;1.8;;
34453;SDS011;60061;52.080;5.312;2022-07-29T04:28:08;3.4;;;1.8;;
34453;SDS011;60061;52.080;5.312;2022-07-29T04:29:56;2.9;;;2.0;;
34453;SDS011;60061;52.080;5.312;2022-07-29T04:31:42;3.5;;;1.9;;
34453;SDS011;60061;52.080;5.312;2022-07-29T04:35:15;4.41;;;1.8;;
34453;SDS011;60061;52.080;5.312;2022-07-29T04:37:01;4.1;;;1.9;;
34453;SDS011;60061;52.080;5.312;2022-07-29T04:38:49;2.4;;;1.9;;
34453;SDS011;60061;52.080;5.312;2022-07-29T04:40:36;4.41;;;2.0;;
34453;SDS011;60061;52.080;5.312;2022-07-29T04:42:22;2.7;;;1.7;;
34453;SDS011;60061;52.080;5.312;2022-07-29T04:45:54;2.9;;;1.9;;
34453;SDS011;60061;52.080;5.312;2022-07-29T04:47:40;10.9;;;2.5;;
34453;SDS011;60061;52.080;5.312;2022-07-29T04:49:27;4.2;;;2.0;;
34453;SDS011;60061;52.080;5.312;2022-07-29T04:51:14;4.7;;;2.31;;
34453;SDS011;60061;52.080;5.312;2022-07-29T04:53:02;3.4;;;2.0;;
34453;SDS011;60061;52.080;5.312;2022-07-29T04:54:48;2.8;;;2.0;;
34453;SDS011;60061;52.080;5.312;2022-07-29T04:58:23;7.3;;;2.7;;
34453;SDS011;60061;52.080;5.312;2022-07-29T05:00:10;6.0;;;2.21;;
34453;SDS011;60061;52.080;5.312;2022-07-29T05:01:57;5.7;;;2.21;;
34453;SDS011;60061;52.080;5.312;2022-07-29T05:03:44;3.5;;;2.1;;
34453;SDS011;60061;52.080;5.312;2022-07-29T05:05:30;5.11;;;2.1;;
34453;SDS011;60061;52.080;5.312;2022-07-29T05:07:17;8.6;;;2.21;;
34453;SDS011;60061;52.080;5.312;2022-07-29T05:10:51;4.2;;;2.21;;
34453;SDS011;60061;52.080;5.312;2022-07-29T05:12:37;3.9;;;2.21;;
34453;SDS011;60061;52.080;5.312;2022-07-29T05:14:23;3.4;;;2.31;;
34453;SDS011;60061;52.080;5.312;2022-07-29T05:16:10;4.7;;;2.1;;
34453;SDS011;60061;52.080;5.312;2022-07-29T05:17:56;5.3;;;2.31;;
34453;SDS011;60061;52.080;5.312;2022-07-29T05:21:30;5.2;;;2.1;;
34453;SDS011;60061;52.080;5.312;2022-07-29T05:23:16;4.91;;;2.1;;
34453;SDS011;60061;52.080;5.312;2022-07-29T05:25:03;3.1;;;1.9;;
34453;SDS011;60061;52.080;5.312;2022-07-29T05:26:50;2.7;;;1.8;;
34453;SDS011;60061;52.080;5.312;2022-07-29T05:28:36;5.7;;;2.0;;
34453;SDS011;60061;52.080;5.312;2022-07-29T05:30:23;3.6;;;2.1;;
34453;SDS011;60061;52.080;5.312;2022-07-29T05:33:58;4.8;;;2.1;;
34453;SDS011;60061;52.080;5.312;2022-07-29T05:35:44;4.7;;;1.9;;
34453;SDS011;60061;52.080;5.312;2022-07-29T05:37:30;5.0;;;2.4;;
34453;SDS011;60061;52.080;5.312;2022-07-29T05:39:17;3.2;;;2.1;;
34453;SDS011;60061;52.080;5.312;2022-07-29T05:41:03;6.4;;;2.5;;
34453;SDS011;60061;52.080;5.312;2022-07-29T05:42:50;8.2;;;2.5;;
34453;SDS011;60061;52.080;5.312;2022-07-29T05:46:25;4.1;;;2.31;;
34453;SDS011;60061;52.080;5.312;2022-07-29T05:48:12;6.6;;;2.1;;
34453;SDS011;60061;52.080;5.312;2022-07-29T05:49:58;4.61;;;2.4;;
34453;SDS011;60061;52.080;5.312;2022-07-29T05:51:44;3.2;;;2.1;;
34453;SDS011;60061;52.080;5.312;2022-07-29T05:53:30;2.9;;;2.21;;
34453;SDS011;60061;52.080;5.312;2022-07-29T05:57:05;5.5;;;2.4;;
34453;SDS011;60061;52.080;5.312;2022-07-29T05:58:52;4.5;;;2.5;;
34453;SDS011;60061;52.080;5.312;2022-07-29T06:00:39;7.2;;;2.8;;
34453;SDS011;60061;52.080;5.312;2022-07-29T06:02:26;4.5;;;2.5;;
34453;SDS011;60061;52.080;5.312;2022-07-29T06:04:12;5.7;;;2.7;;
34453;SDS011;60061;52.080;5.312;2022-07-29T06:05:59;3.8;;;2.31;;
34453;SDS011;60061;52.080;5.312;2022-07-29T06:09:32;5.2;;;2.4;;
34453;SDS011;60061;52.080;5.312;2022-07-29T06:11:19;4.8;;;2.31;;
34453;SDS011;60061;52.080;5.312;2022-07-29T06:13:05;4.41;;;2.6;;
34453;SDS011;60061;52.080;5.312;2022-07-29T06:14:51;6.4;;;2.31;;
34453;SDS011;60061;52.080;5.312;2022-07-29T06:16:37;4.91;;;2.6;;
34453;SDS011;60061;52.080;5.312;2022-07-29T06:18:24;4.5;;;2.6;;
34453;SDS011;60061;52.080;5.312;2022-07-29T06:21:57;7.1;;;2.8;;
34453;SDS011;60061;52.080;5.312;2022-07-29T06:23:45;5.2;;;2.7;;
34453;SDS011;60061;52.080;5.312;2022-07-29T06:25:34;3.9;;;2.7;;
34453;SDS011;60061;52.080;5.312;2022-07-29T06:27:20;6.4;;;2.6;;
34453;SDS011;60061;52.080;5.312;2022-07-29T06:29:06;6.1;;;3.1;;
34453;SDS011;60061;52.080;5.312;2022-07-29T06:30:55;4.1;;;3.1;;
34453;SDS011;60061;52.080;5.312;2022-07-29T06:36:14;3.5;;;2.4;;
34453;SDS011;60061;52.080;5.312;2022-07-29T06:38:01;6.4;;;2.8;;
34453;SDS011;60061;52.080;5.312;2022-07-29T06:40:59;5.4;;;2.8;;
34453;SDS011;60061;52.080;5.312;2022-07-29T06:42:46;5.11;;;2.6;;
34453;SDS011;60061;52.080;5.312;2022-07-29T06:44:33;6.1;;;2.9;;
34453;SDS011;60061;52.080;5.312;2022-07-29T06:46:21;6.6;;;2.9;;
34453;SDS011;60061;52.080;5.312;2022-07-29T06:48:08;4.7;;;2.6;;
34453;SDS011;60061;52.080;5.312;2022-07-29T06:49:55;7.9;;;3.0;;
34453;SDS011;60061;52.080;5.312;2022-07-29T06:53:28;4.1;;;2.6;;
34453;SDS011;60061;52.080;5.312;2022-07-29T06:55:16;5.4;;;2.7;;
34453;SDS011;60061;52.080;5.312;2022-07-29T06:57:02;4.91;;;2.8;;
34453;SDS011;60061;52.080;5.312;2022-07-29T06:58:48;5.11;;;2.8;;
34453;SDS011;60061;52.080;5.312;2022-07-29T07:00:35;5.0;;;2.7;;
34453;SDS011;60061;52.080;5.312;2022-07-29T07:02:21;7.1;;;3.2;;
34453;SDS011;60061;52.080;5.312;2022-07-29T07:05:56;5.9;;;3.0;;
34453;SDS011;60061;52.080;5.312;2022-07-29T07:07:43;4.1;;;2.7;;
34453;SDS011;60061;52.080;5.312;2022-07-29T07:09:29;6.1;;;2.9;;
34453;SDS011;60061;52.080;5.312;2022-07-29T07:11:15;6.6;;;2.9;;
34453;SDS011;60061;52.080;5.312;2022-07-29T07:13:01;6.2;;;3.1;;
34453;SDS011;60061;52.080;5.312;2022-07-29T07:14:49;4.5;;;2.6;;
34453;SDS011;60061;52.080;5.312;2022-07-29T07:18:22;8.71;;;3.0;;
34453;SDS011;60061;52.080;5.312;2022-07-29T07:20:08;5.7;;;2.9;;
34453;SDS011;60061;52.080;5.312;2022-07-29T07:21:55;4.7;;;2.8;;
34453;SDS011;60061;52.080;5.312;2022-07-29T07:23:42;5.2;;;2.9;;
34453;SDS011;60061;52.080;5.312;2022-07-29T07:25:28;4.5;;;2.7;;
34453;SDS011;60061;52.080;5.312;2022-07-29T07:29:00;3.1;;;2.4;;
34453;SDS011;60061;52.080;5.312;2022-07-29T07:30:47;4.8;;;2.7;;
34453;SDS011;60061;52.080;5.312;2022-07-29T07:32:34;4.5;;;2.7;;
34453;SDS011;60061;52.080;5.312;2022-07-29T07:34:21;5.7;;;2.5;;
34453;SDS011;60061;52.080;5.312;2022-07-29T07:36:07;5.4;;;2.7;;
34453;SDS011;60061;52.080;5.312;2022-07-29T07:37:53;4.91;;;2.6;;
34453;SDS011;60061;52.080;5.312;2022-07-29T07:41:28;5.11;;;2.5;;
34453;SDS011;60061;52.080;5.312;2022-07-29T07:43:14;5.7;;;2.6;;
34453;SDS011;60061;52.080;5.312;2022-07-29T07:45:00;4.2;;;2.6;;
34453;SDS011;60061;52.080;5.312;2022-07-29T07:46:46;4.41;;;2.31;;
34453;SDS011;60061;52.080;5.312;2022-07-29T07:48:34;4.91;;;2.7;;
34453;SDS011;60061;52.080;5.312;2022-07-29T07:52:07;4.3;;;2.8;;
34453;SDS011;60061;52.080;5.312;2022-07-29T07:53:54;5.0;;;2.6;;
34453;SDS011;60061;52.080;5.312;2022-07-29T07:55:42;3.7;;;2.7;;
34453;SDS011;60061;52.080;5.312;2022-07-29T07:57:29;7.0;;;3.0;;
34453;SDS011;60061;52.080;5.312;2022-07-29T07:59:15;7.7;;;2.9;;
34453;SDS011;60061;52.080;5.312;2022-07-29T08:01:02;3.9;;;2.9;;
34453;SDS011;60061;52.080;5.312;2022-07-29T08:04:36;4.91;;;2.8;;
34453;SDS011;60061;52.080;5.312;2022-07-29T08:06:24;5.6;;;2.7;;
34453;SDS011;60061;52.080;5.312;2022-07-29T08:08:11;4.7;;;2.5;;
34453;SDS011;60061;52.080;5.312;2022-07-29T08:09:57;4.0;;;2.7;;
34453;SDS011;60061;52.080;5.312;2022-07-29T08:11:43;4.91;;;2.6;;
34453;SDS011;60061;52.080;5.312;2022-07-29T08:13:30;4.91;;;3.0;;
34453;SDS011;60061;52.080;5.312;2022-07-29T08:17:03;3.8;;;2.21;;
34453;SDS011;60061;52.080;5.312;2022-07-29T08:18:49;8.0;;;3.0;;
34453;SDS011;60061;52.080;5.312;2022-07-29T08:20:35;5.11;;;2.8;;
34453;SDS011;60061;52.080;5.312;2022-07-29T08:22:23;6.5;;;2.9;;
34453;SDS011;60061;52.080;5.312;2022-07-29T08:25:13;6.5;;;2.9;;
34453;SDS011;60061;52.080;5.312;2022-07-29T08:26:59;7.2;;;2.6;;
34453;SDS011;60061;52.080;5.312;2022-07-29T08:28:46;7.0;;;2.8;;
34453;SDS011;60061;52.080;5.312;2022-07-29T08:30:33;7.9;;;2.6;;
34453;SDS011;60061;52.080;5.312;2022-07-29T08:32:20;4.61;;;2.6;;
34453;SDS011;60061;52.080;5.312;2022-07-29T08:35:55;10.0;;;3.2;;
34453;SDS011;60061;52.080;5.312;2022-07-29T08:37:42;6.1;;;2.7;;
34453;SDS011;60061;52.080;5.312;2022-07-29T08:39:28;7.3;;;2.9;;
34453;SDS011;60061;52.080;5.312;2022-07-29T08:41:15;8.71;;;2.9;;
34453;SDS011;60061;52.080;5.312;2022-07-29T08:43:04;6.3;;;2.8;;
34453;SDS011;60061;52.080;5.312;2022-07-29T08:44:53;6.0;;;2.31;;
34453;SDS011;60061;52.080;5.312;2022-07-29T08:48:28;6.2;;;2.5;;
34453;SDS011;60061;52.080;5.312;2022-07-29T08:50:15;5.7;;;2.7;;
34453;SDS011;60061;52.080;5.312;2022-07-29T08:52:02;4.1;;;2.6;;
34453;SDS011;60061;52.080;5.312;2022-07-29T08:53:49;4.5;;;2.6;;
34453;SDS011;60061;52.080;5.312;2022-07-29T08:55:38;7.8;;;2.9;;
34453;SDS011;60061;52.080;5.312;2022-07-29T08:57:26;6.6;;;2.5;;
34453;SDS011;60061;52.080;5.312;2022-07-29T09:01:01;4.2;;;2.31;;
34453;SDS011;60061;52.080;5.312;2022-07-29T09:02:50;7.5;;;2.8;;
34453;SDS011;60061;52.080;5.312;2022-07-29T09:04:42;8.0;;;2.6;;
34453;SDS011;60061;52.080;5.312;2022-07-29T09:06:32;3.1;;;2.1;;
34453;SDS011;60061;52.080;5.312;2022-07-29T09:08:23;5.3;;;2.6;;
34453;SDS011;60061;52.080;5.312;2022-07-29T09:10:10;3.6;;;2.4;;
34453;SDS011;60061;52.080;5.312;2022-07-29T09:13:46;5.11;;;2.5;;
34453;SDS011;60061;52.080;5.312;2022-07-29T09:15:32;6.0;;;2.4;;
34453;SDS011;60061;52.080;5.312;2022-07-29T09:17:32;6.6;;;2.7;;
34453;SDS011;60061;52.080;5.312;2022-07-29T09:19:27;4.91;;;2.5;;
34453;SDS011;60061;52.080;5.312;2022-07-29T09:22:28;3.4;;;2.4;;
34453;SDS011;60061;52.080;5.312;2022-07-29T09:24:15;4.61;;;2.31;;
34453;SDS011;60061;52.080;5.312;2022-07-29T09:26:04;7.8;;;2.6;;
34453;SDS011;60061;52.080;5.312;2022-07-29T09:27:51;3.0;;;2.31;;
34453;SDS011;60061;52.080;5.312;2022-07-29T09:29:38;4.2;;;2.6;;
34453;SDS011;60061;52.080;5.312;2022-07-29T09:31:31;5.5;;;2.8;;
34453;SDS011;60061;52.080;5.312;2022-07-29T09:33:20;5.2;;;2.6;;
34453;SDS011;60061;52.080;5.312;2022-07-29T09:35:17;5.9;;;2.5;;
34453;SDS011;60061;52.080;5.312;2022-07-29T09:37:05;3.7;;;2.6;;
34453;SDS011;60061;52.080;5.312;2022-07-29T09:40:43;6.5;;;2.5;;
34453;SDS011;60061;52.080;5.312;2022-07-29T09:42:43;5.3;;;2.4;;
34453;SDS011;60061;52.080;5.312;2022-07-29T09:44:46;5.3;;;2.4;;
34453;SDS011;60061;52.080;5.312;2022-07-29T09:46:34;5.4;;;2.4;;
34453;SDS011;60061;52.080;5.312;2022-07-29T09:48:22;5.5;;;2.6;;
34453;SDS011;60061;52.080;5.312;2022-07-29T09:50:10;6.9;;;2.6;;
34453;SDS011;60061;52.080;5.312;2022-07-29T09:51:59;5.7;;;2.21;;
34453;SDS011;60061;52.080;5.312;2022-07-29T09:55:52;5.7;;;2.4;;
34453;SDS011;60061;52.080;5.312;2022-07-29T09:57:39;5.7;;;2.31;;
34453;SDS011;60061;52.080;5.312;2022-07-29T09:59:26;4.91;;;2.4;;
34453;SDS011;60061;52.080;5.312;2022-07-29T10:01:12;5.6;;;2.5;;
34453;SDS011;60061;52.080;5.312;2022-07-29T10:03:00;4.5;;;2.4;;
34453;SDS011;60061;52.080;5.312;2022-07-29T10:04:47;7.6;;;2.21;;
34453;SDS011;60061;52.080;5.312;2022-07-29T10:06:34;4.91;;;2.5;;
34453;SDS011;60061;52.080;5.312;2022-07-29T10:08:41;3.8;;;2.0;;
34453;SDS011;60061;52.080;5.312;2022-07-29T10:12:18;5.8;;;2.31;;
34453;SDS011;60061;52.080;5.312;2022-07-29T10:14:04;4.61;;;2.1;;
34453;SDS011;60061;52.080;5.312;2022-07-29T10:15:52;5.8;;;2.4;;
34453;SDS011;60061;52.080;5.312;2022-07-29T10:17:39;4.1;;;2.4;;
34453;SDS011;60061;52.080;5.312;2022-07-29T10:19:27;3.7;;;2.31;;
34453;SDS011;60061;52.080;5.312;2022-07-29T10:21:15;6.2;;;2.4;;
34453;SDS011;60061;52.080;5.312;2022-07-29T10:24:51;5.8;;;2.31;;
34453;SDS011;60061;52.080;5.312;2022-07-29T10:26:41;6.5;;;3.0;;
34453;SDS011;60061;52.080;5.312;2022-07-29T10:28:29;15.4;;;3.2;;
34453;SDS011;60061;52.080;5.312;2022-07-29T10:30:16;5.0;;;2.31;;
34453;SDS011;60061;52.080;5.312;2022-07-29T10:32:10;4.0;;;2.5;;
34453;SDS011;60061;52.080;5.312;2022-07-29T10:34:07;6.1;;;2.4;;
34453;SDS011;60061;52.080;5.312;2022-07-29T10:36:08;4.61;;;2.7;;
34453;SDS011;60061;52.080;5.312;2022-07-29T10:38:14;4.1;;;2.5;;
34453;SDS011;60061;52.080;5.312;2022-07-29T10:41:50;4.61;;;2.4;;
34453;SDS011;60061;52.080;5.312;2022-07-29T10:43:56;7.1;;;2.4;;
34453;SDS011;60061;52.080;5.312;2022-07-29T10:45:47;4.1;;;2.4;;
34453;SDS011;60061;52.080;5.312;2022-07-29T10:47:36;5.2;;;2.5;;
34453;SDS011;60061;52.080;5.312;2022-07-29T10:49:22;4.3;;;2.5;;
34453;SDS011;60061;52.080;5.312;2022-07-29T10:51:10;3.1;;;2.4;;
34453;SDS011;60061;52.080;5.312;2022-07-29T10:52:57;4.3;;;2.6;;
34453;SDS011;60061;52.080;5.312;2022-07-29T10:54:47;5.11;;;2.5;;
34453;SDS011;60061;52.080;5.312;2022-07-29T10:56:36;4.3;;;2.21;;
34453;SDS011;60061;52.080;5.312;2022-07-29T11:00:27;4.7;;;2.4;;
34453;SDS011;60061;52.080;5.312;2022-07-29T11:02:50;4.3;;;2.4;;
34453;SDS011;60061;52.080;5.312;2022-07-29T11:05:08;4.2;;;2.31;;
34453;SDS011;60061;52.080;5.312;2022-07-29T11:07:08;6.7;;;2.8;;
34453;SDS011;60061;52.080;5.312;2022-07-29T11:09:28;6.6;;;2.8;;
34453;SDS011;60061;52.080;5.312;2022-07-29T11:13:55;8.0;;;2.7;;
34453;SDS011;60061;52.080;5.312;2022-07-29T11:15:57;4.3;;;2.4;;
34453;SDS011;60061;52.080;5.312;2022-07-29T11:18:03;6.9;;;2.8;;
34453;SDS011;60061;52.080;5.312;2022-07-29T11:19:51;6.1;;;2.5;;
34453;SDS011;60061;52.080;5.312;2022-07-29T11:22:31;6.4;;;2.6;;
34453;SDS011;60061;52.080;5.312;2022-07-29T11:24:21;3.8;;;2.7;;
34453;SDS011;60061;52.080;5.312;2022-07-29T11:26:14;3.5;;;2.6;;
34453;SDS011;60061;52.080;5.312;2022-07-29T11:28:08;4.41;;;2.4;;
34453;SDS011;60061;52.080;5.312;2022-07-29T11:31:54;5.0;;;2.6;;
34453;SDS011;60061;52.080;5.312;2022-07-29T11:33:56;6.3;;;2.9;;
34453;SDS011;60061;52.080;5.312;2022-07-29T11:35:43;7.2;;;3.3;;
34453;SDS011;60061;52.080;5.312;2022-07-29T11:38:23;8.4;;;3.3;;
34453;SDS011;60061;52.080;5.312;2022-07-29T11:40:13;4.91;;;3.3;;
34453;SDS011;60061;52.080;5.312;2022-07-29T11:42:36;4.91;;;3.3;;
34453;SDS011;60061;52.080;5.312;2022-07-29T11:44:55;6.3;;;2.7;;
34453;SDS011;60061;52.080;5.312;2022-07-29T11:48:32;5.11;;;3.1;;
34453;SDS011;60061;52.080;5.312;2022-07-29T11:50:28;6.7;;;3.3;;
34453;SDS011;60061;52.080;5.312;2022-07-29T11:52:18;5.5;;;3.0;;
34453;SDS011;60061;52.080;5.312;2022-07-29T11:54:06;6.5;;;3.8;;
34453;SDS011;60061;52.080;5.312;2022-07-29T11:55:59;9.81;;;4.0;;
34453;SDS011;60061;52.080;5.312;2022-07-29T11:57:47;5.8;;;3.3;;
34453;SDS011;60061;52.080;5.312;2022-07-29T11:59:38;8.31;;;4.1;;
34453;SDS011;60061;52.080;5.312;2022-07-29T12:01:27;9.1;;;3.2;;
34453;SDS011;60061;52.080;5.312;2022-07-29T12:05:10;11.7;;;3.8;;
34453;SDS011;60061;52.080;5.312;2022-07-29T12:06:57;15.0;;;4.7;;
34453;SDS011;60061;52.080;5.312;2022-07-29T12:08:44;6.6;;;3.5;;
34453;SDS011;60061;52.080;5.312;2022-07-29T12:10:30;8.1;;;3.6;;
34453;SDS011;60061;52.080;5.312;2022-07-29T12:12:18;8.71;;;5.2;;
34453;SDS011;60061;52.080;5.312;2022-07-29T12:14:05;10.9;;;5.0;;
34453;SDS011;60061;52.080;5.312;2022-07-29T12:17:39;5.9;;;4.0;;
34453;SDS011;60061;52.080;5.312;2022-07-29T12:19:25;5.8;;;4.3;;
34453;SDS011;60061;52.080;5.312;2022-07-29T12:21:12;7.3;;;4.0;;
34453;SDS011;60061;52.080;5.312;2022-07-29T12:23:03;7.9;;;3.8;;
34453;SDS011;60061;52.080;5.312;2022-07-29T12:24:52;6.7;;;3.7;;
34453;SDS011;60061;52.080;5.312;2022-07-29T12:26:48;6.7;;;4.1;;
34453;SDS011;60061;52.080;5.312;2022-07-29T12:30:23;7.0;;;4.2;;
34453;SDS011;60061;52.080;5.312;2022-07-29T12:32:21;6.3;;;4.1;;
34453;SDS011;60061;52.080;5.312;2022-07-29T12:34:09;8.71;;;3.8;;
34453;SDS011;60061;52.080;5.312;2022-07-29T12:35:56;4.91;;;3.4;;
34453;SDS011;60061;52.080;5.312;2022-07-29T12:37:45;7.1;;;3.8;;
34453;SDS011;60061;52.080;5.312;2022-07-29T12:39:34;6.8;;;4.1;;
34453;SDS011;60061;52.080;5.312;2022-07-29T12:41:21;5.8;;;3.7;;
34453;SDS011;60061;52.080;5.312;2022-07-29T12:44:57;6.4;;;3.4;;
34453;SDS011;60061;52.080;5.312;2022-07-29T12:47:00;6.3;;;4.2;;
34453;SDS011;60061;52.080;5.312;2022-07-29T12:48:50;8.5;;;4.3;;
34453;SDS011;60061;52.080;5.312;2022-07-29T12:50:51;8.6;;;4.3;;
34453;SDS011;60061;52.080;5.312;2022-07-29T12:52:42;7.3;;;3.6;;
34453;SDS011;60061;52.080;5.312;2022-07-29T12:54:30;6.8;;;3.7;;
34453;SDS011;60061;52.080;5.312;2022-07-29T12:56:16;5.7;;;4.2;;
34453;SDS011;60061;52.080;5.312;2022-07-29T12:58:03;6.7;;;3.6;;
34453;SDS011;60061;52.080;5.312;2022-07-29T13:01:50;6.2;;;3.6;;
34453;SDS011;60061;52.080;5.312;2022-07-29T13:03:46;7.1;;;3.5;;
34453;SDS011;60061;52.080;5.312;2022-07-29T13:05:40;7.4;;;3.1;;
34453;SDS011;60061;52.080;5.312;2022-07-29T13:07:30;5.3;;;3.2;;
34453;SDS011;60061;52.080;5.312;2022-07-29T13:09:19;7.3;;;3.3;;
34453;SDS011;60061;52.080;5.312;2022-07-29T13:11:07;3.2;;;2.7;;